Time;durP1;ratioP1;P1;durP2;ratioP2;P2;SDS_P1;SDS_P2;PMS_P1;PMS_P2;Temp;Humidity;BMP_temperature;BMP_pressure;BME280_temperature;BME280_humidity;BME280_pressure;Samples;Min_cycle;Max_cycle;Signal;HPM_P1;HPM_P2
2021/07/21 00:08:38;;;;;;;6.53;4.55;;;;;;;;;;5655762;23;20916;-63
2021/07/21 00:22:55;;;;;;;6.57;4.55;;;;;;;;;;6283479;22;20199;31
2021/07/21 00:30:15;;;;;;;6.40;4.50;;;;;;;;;;6314651;22;20418;31
2021/07/21 00:37:58;;;;;;;5.50;4.40;;;;;;;;;;6197432;22;20205;31
2021/07/21 00:45:46;;;;;;;7.93;4.40;;;;;;;;;;6140894;23;20202;31
2021/07/21 00:57:18;;;;;;;7.78;4.65;;;;;;;;;;6263142;22;21316;31
2021/07/21 01:19:07;;;;;;;6.22;4.45;;;;;;;;;;6344230;22;21714;-63
2021/07/21 01:21:34;;;;;;;5.78;4.97;;;;;;;;;;6296088;22;20210;31
2021/07/21 01:26:22;;;;;;;7.97;4.63;;;;;;;;;;6344783;22;20522;31
2021/07/21 01:28:55;;;;;;;7.00;4.97;;;;;;;;;;6339602;22;20215;31
2021/07/21 01:49:06;;;;;;;6.88;4.63;;;;;;;;;;6256865;22;20204;31
2021/07/21 01:59:56;;;;;;;8.00;5.20;;;;;;;;;;6289464;22;20511;31
2021/07/21 02:07:05;;;;;;;5.90;4.80;;;;;;;;;;6207165;22;21331;31
2021/07/21 02:16:15;;;;;;;7.25;5.30;;;;;;;;;;6134673;23;20629;-64
2021/07/21 02:20:53;;;;;;;8.13;5.05;;;;;;;;;;6258533;22;22283;-64
2021/07/21 02:23:18;;;;;;;6.03;4.70;;;;;;;;;;6231579;22;20347;31
2021/07/21 02:27:45;;;;;;;6.22;4.70;;;;;;;;;;6173755;22;20558;31
2021/07/21 02:37:08;;;;;;;6.25;4.55;;;;;;;;;;6133663;23;22734;31
2021/07/21 02:43:35;;;;;;;6.10;4.60;;;;;;;;;;6200800;22;20210;31
2021/07/21 02:50:43;;;;;;;7.22;4.55;;;;;;;;;;6171035;23;20202;-64
2021/07/21 02:57:51;;;;;;;6.38;5.07;;;;;;;;;;6147609;23;20199;31
2021/07/21 03:04:54;;;;;;;8.40;5.25;;;;;;;;;;6199214;22;20526;31
2021/07/21 03:11:46;;;;;;;5.50;4.90;;;;;;;;;;6222273;22;20202;31
2021/07/21 03:18:42;;;;;;;6.80;4.65;;;;;;;;;;6252491;22;20205;31
2021/07/21 03:39:36;;;;;;;5.07;4.40;;;;;;;;;;6141315;23;20207;31
2021/07/21 04:00:31;;;;;;;5.45;4.57;;;;;;;;;;6310302;22;20476;31
2021/07/21 04:13:57;;;;;;;4.40;3.95;;;;;;;;;;6285333;22;20609;-65
2021/07/21 04:16:24;;;;;;;5.15;3.75;;;;;;;;;;6285451;22;20567;-65
2021/07/21 04:18:50;;;;;;;7.85;3.60;;;;;;;;;;6285313;22;20803;-65
2021/07/21 04:21:16;;;;;;;5.88;3.75;;;;;;;;;;6285778;22;20696;-65
2021/07/21 04:23:43;;;;;;;6.15;3.72;;;;;;;;;;6285540;22;20228;-65
2021/07/21 04:26:11;;;;;;;7.07;4.22;;;;;;;;;;6285381;22;20135;-65
2021/07/21 04:28:41;;;;;;;5.30;3.60;;;;;;;;;;6285309;22;20162;-65
2021/07/21 04:31:07;;;;;;;7.28;4.93;;;;;;;;;;6285544;22;20155;-65
2021/07/21 04:33:34;;;;;;;5.70;4.50;;;;;;;;;;6285550;22;20604;-65
2021/07/21 04:36:00;;;;;;;6.45;4.47;;;;;;;;;;6285461;22;20147;-65
2021/07/21 04:38:27;;;;;;;6.68;4.13;;;;;;;;;;6285220;22;20150;-65
2021/07/21 04:40:54;;;;;;;8.82;3.85;;;;;;;;;;6285352;22;20148;-65
2021/07/21 04:43:20;;;;;;;7.38;4.45;;;;;;;;;;6285017;22;20163;-65
2021/07/21 04:45:48;;;;;;;5.72;4.15;;;;;;;;;;6285279;22;20423;-65
2021/07/21 04:48:15;;;;;;;8.00;3.97;;;;;;;;;;6284971;22;20139;-65
2021/07/21 04:50:42;;;;;;;7.57;4.70;;;;;;;;;;6285185;22;20136;-65
2021/07/21 04:53:10;;;;;;;7.10;4.43;;;;;;;;;;6285032;22;20197;-65
2021/07/21 04:55:36;;;;;;;6.18;3.72;;;;;;;;;;6284730;22;20143;-65
2021/07/21 04:58:01;;;;;;;4.97;3.75;;;;;;;;;;6284838;22;20181;-66
2021/07/21 05:00:27;;;;;;;7.97;4.78;;;;;;;;;;6284701;22;20188;-65
2021/07/21 05:02:53;;;;;;;6.22;4.40;;;;;;;;;;6284748;22;20224;-65
2021/07/21 05:05:20;;;;;;;8.93;4.57;;;;;;;;;;6284641;22;20519;-65
2021/07/21 05:07:46;;;;;;;7.22;3.88;;;;;;;;;;6284938;22;20166;-65
2021/07/21 05:10:12;;;;;;;5.05;4.20;;;;;;;;;;6284744;22;20438;-65
2021/07/21 05:12:43;;;;;;;5.95;4.05;;;;;;;;;;6284390;22;20186;-66
2021/07/21 05:15:09;;;;;;;9.70;4.47;;;;;;;;;;6280787;22;20208;-65
2021/07/21 05:17:35;;;;;;;6.18;4.10;;;;;;;;;;6277936;22;20438;-66
2021/07/21 05:20:01;;;;;;;5.80;4.05;;;;;;;;;;6277527;22;20139;-65
2021/07/21 05:22:27;;;;;;;7.57;4.18;;;;;;;;;;6277471;22;20525;-65
2021/07/21 05:24:53;;;;;;;9.18;4.53;;;;;;;;;;6277507;22;20416;-65
2021/07/21 05:27:19;;;;;;;4.80;3.60;;;;;;;;;;6277597;22;20232;-65
2021/07/21 05:29:45;;;;;;;6.65;4.22;;;;;;;;;;6277805;22;20228;-65
2021/07/21 05:32:11;;;;;;;7.90;4.35;;;;;;;;;;6277871;22;20140;-65
2021/07/21 05:34:37;;;;;;;7.25;4.00;;;;;;;;;;6277278;22;20140;-65
2021/07/21 05:37:04;;;;;;;6.95;3.85;;;;;;;;;;6277358;22;20173;-65
2021/07/21 05:39:29;;;;;;;6.63;3.63;;;;;;;;;;6277384;22;20562;-65
2021/07/21 05:41:58;;;;;;;6.25;4.00;;;;;;;;;;6277480;22;20226;-65
2021/07/21 05:44:27;;;;;;;7.57;4.07;;;;;;;;;;6277389;22;20249;-65
2021/07/21 05:46:54;;;;;;;6.85;3.88;;;;;;;;;;6277699;22;20147;-65
2021/07/21 05:49:20;;;;;;;7.13;4.55;;;;;;;;;;6277781;22;20292;-65
2021/07/21 05:51:46;;;;;;;8.80;3.95;;;;;;;;;;6277709;22;20182;-66
2021/07/21 05:54:12;;;;;;;6.22;4.00;;;;;;;;;;6277418;22;20221;-65
2021/07/21 05:56:41;;;;;;;9.27;4.28;;;;;;;;;;6277342;22;20556;-65
2021/07/21 05:59:07;;;;;;;7.00;4.07;;;;;;;;;;6277376;22;20154;-65
2021/07/21 06:01:33;;;;;;;5.75;3.78;;;;;;;;;;6277259;22;20437;-66
2021/07/21 06:03:59;;;;;;;6.82;3.70;;;;;;;;;;6277590;22;20185;-66
2021/07/21 06:06:25;;;;;;;7.47;4.07;;;;;;;;;;6277062;22;20151;-66
2021/07/21 06:08:51;;;;;;;7.15;3.97;;;;;;;;;;6277591;22;20146;-66
2021/07/21 06:11:19;;;;;;;6.25;4.60;;;;;;;;;;6277056;22;20147;-65
2021/07/21 06:13:45;;;;;;;7.15;4.72;;;;;;;;;;6277059;22;20163;-66
2021/07/21 06:16:13;;;;;;;5.95;3.88;;;;;;;;;;6277085;22;20166;-65
2021/07/21 06:18:39;;;;;;;7.05;3.67;;;;;;;;;;6277565;22;20151;-65
2021/07/21 06:21:05;;;;;;;7.10;3.65;;;;;;;;;;6277110;22;20551;-65
2021/07/21 06:23:31;;;;;;;7.22;3.78;;;;;;;;;;6277083;22;20163;-66
2021/07/21 06:25:57;;;;;;;7.40;3.70;;;;;;;;;;6276749;22;20210;-66
2021/07/21 06:28:23;;;;;;;6.65;3.22;;;;;;;;;;6276998;22;20285;-66
2021/07/21 06:30:49;;;;;;;6.57;4.00;;;;;;;;;;6277058;22;20617;-65
2021/07/21 06:33:18;;;;;;;3.90;3.38;;;;;;;;;;6277054;22;20165;-65
2021/07/21 06:35:47;;;;;;;6.00;3.38;;;;;;;;;;6276944;22;20147;-66
2021/07/21 06:38:14;;;;;;;5.90;3.50;;;;;;;;;;6277435;22;20147;-66
2021/07/21 06:40:40;;;;;;;7.07;4.00;;;;;;;;;;6277023;22;20200;-66
2021/07/21 06:43:06;;;;;;;7.15;4.03;;;;;;;;;;6277029;22;20163;-66
2021/07/21 06:45:32;;;;;;;5.18;4.03;;;;;;;;;;6277309;22;20155;-66
2021/07/21 06:47:58;;;;;;;7.40;4.30;;;;;;;;;;6277141;22;20609;-66
2021/07/21 06:50:24;;;;;;;4.57;3.90;;;;;;;;;;6277092;22;20170;-66
2021/07/21 06:52:50;;;;;;;7.72;3.90;;;;;;;;;;6277305;22;20261;-66
2021/07/21 06:55:16;;;;;;;5.90;4.15;;;;;;;;;;6277508;22;20163;-66
2021/07/21 06:57:42;;;;;;;7.15;4.10;;;;;;;;;;6277688;22;20539;-66
2021/07/21 07:00:08;;;;;;;5.90;4.05;;;;;;;;;;6276010;22;20151;-66
2021/07/21 07:02:34;;;;;;;4.95;3.85;;;;;;;;;;6277172;22;20143;-66
2021/07/21 07:05:00;;;;;;;5.22;4.25;;;;;;;;;;6277408;22;20142;-66
2021/07/21 07:07:26;;;;;;;5.07;3.67;;;;;;;;;;6277307;22;20347;-65
2021/07/21 07:09:52;;;;;;;6.53;4.13;;;;;;;;;;6277323;22;20139;-65
2021/07/21 07:12:18;;;;;;;6.13;3.92;;;;;;;;;;6276971;22;20220;-65
2021/07/21 07:14:44;;;;;;;5.50;4.13;;;;;;;;;;6277627;22;20131;-65
2021/07/21 07:17:10;;;;;;;6.18;4.72;;;;;;;;;;6277325;22;20154;-65
2021/07/21 07:19:36;;;;;;;6.68;4.38;;;;;;;;;;6276922;22;20222;-65
2021/07/21 07:22:02;;;;;;;7.38;4.32;;;;;;;;;;6276830;22;20170;-65
2021/07/21 07:24:28;;;;;;;6.55;4.75;;;;;;;;;;6276823;22;20185;-65
2021/07/21 07:26:55;;;;;;;7.97;5.10;;;;;;;;;;6276762;22;20567;-65
2021/07/21 07:29:21;;;;;;;7.32;5.03;;;;;;;;;;6276933;22;20150;-65
2021/07/21 07:31:47;;;;;;;8.07;5.00;;;;;;;;;;6275419;22;20226;-65
2021/07/21 07:34:13;;;;;;;8.18;4.85;;;;;;;;;;6277164;22;20171;-64
2021/07/21 07:36:39;;;;;;;7.68;4.70;;;;;;;;;;6276425;22;20154;-64
2021/07/21 07:39:07;;;;;;;5.40;4.70;;;;;;;;;;6276404;22;20153;-64
2021/07/21 07:41:33;;;;;;;6.78;4.78;;;;;;;;;;6276543;22;20564;-65
2021/07/21 07:43:59;;;;;;;7.25;4.65;;;;;;;;;;6276415;22;20159;-65
2021/07/21 07:46:27;;;;;;;7.90;4.45;;;;;;;;;;6276460;22;20139;-65
2021/07/21 07:48:54;;;;;;;6.43;4.88;;;;;;;;;;6276959;22;20139;-65
2021/07/21 07:51:19;;;;;;;7.03;4.70;;;;;;;;;;6276310;22;20540;-65
2021/07/21 07:53:45;;;;;;;8.07;5.07;;;;;;;;;;6276437;22;20200;-64
2021/07/21 07:56:11;;;;;;;5.07;4.55;;;;;;;;;;6276465;22;20143;-64
2021/07/21 07:58:38;;;;;;;6.32;4.50;;;;;;;;;;6276253;22;20157;-65
2021/07/21 08:01:04;;;;;;;6.88;4.53;;;;;;;;;;6276187;22;20591;-66
2021/07/21 08:03:30;;;;;;;6.93;4.20;;;;;;;;;;6276609;22;20216;-66
2021/07/21 08:05:59;;;;;;;4.80;4.00;;;;;;;;;;6276713;22;20142;-67
2021/07/21 08:08:25;;;;;;;6.82;4.53;;;;;;;;;;6276289;22;20214;-67
2021/07/21 08:10:51;;;;;;;6.55;4.32;;;;;;;;;;6276363;22;20212;-67
2021/07/21 08:13:19;;;;;;;6.38;3.90;;;;;;;;;;6276034;22;20169;-67
2021/07/21 08:15:46;;;;;;;5.68;4.13;;;;;;;;;;6276400;22;20209;-67
2021/07/21 08:18:12;;;;;;;6.18;3.97;;;;;;;;;;6276169;22;20568;-67
2021/07/21 08:20:38;;;;;;;7.00;4.07;;;;;;;;;;6276265;22;20213;-67
2021/07/21 08:23:04;;;;;;;5.47;4.40;;;;;;;;;;6275981;22;20170;-67
2021/07/21 08:25:30;;;;;;;6.22;4.28;;;;;;;;;;6276106;22;20142;-67
2021/07/21 08:27:56;;;;;;;6.45;4.30;;;;;;;;;;6276383;22;20139;-67
2021/07/21 08:30:23;;;;;;;4.75;3.65;;;;;;;;;;6276061;22;20147;-67
2021/07/21 08:32:50;;;;;;;7.63;4.30;;;;;;;;;;6276400;22;20143;-66
2021/07/21 08:35:17;;;;;;;4.85;3.58;;;;;;;;;;6275932;22;20559;-67
2021/07/21 08:37:43;;;;;;;5.32;3.55;;;;;;;;;;6275898;22;20166;-67
2021/07/21 08:40:10;;;;;;;5.40;3.35;;;;;;;;;;6275985;22;20559;-66
2021/07/21 08:42:36;;;;;;;5.10;3.33;;;;;;;;;;6275805;22;20559;-67
2021/07/21 08:45:03;;;;;;;5.55;3.10;;;;;;;;;;6276375;22;20166;-66
2021/07/21 08:47:29;;;;;;;5.80;3.40;;;;;;;;;;6275845;22;20160;-67
2021/07/21 08:49:56;;;;;;;5.05;3.60;;;;;;;;;;6276329;22;20139;-67
2021/07/21 08:52:23;;;;;;;4.65;3.50;;;;;;;;;;6278088;22;20150;-65
2021/07/21 08:54:49;;;;;;;4.55;3.17;;;;;;;;;;6278198;22;20142;-67
2021/07/21 08:57:16;;;;;;;5.30;3.40;;;;;;;;;;6278107;22;20148;-65
2021/07/21 08:59:43;;;;;;;6.28;3.70;;;;;;;;;;6278163;22;20222;-65
2021/07/21 09:02:14;;;;;;;5.85;3.80;;;;;;;;;;6277972;22;20151;-66
2021/07/21 09:04:40;;;;;;;4.30;3.63;;;;;;;;;;6278159;22;20155;-65
2021/07/21 09:07:07;;;;;;;4.60;3.50;;;;;;;;;;6277926;22;20474;-66
2021/07/21 09:09:33;;;;;;;5.68;3.80;;;;;;;;;;6277979;22;20478;-65
2021/07/21 09:11:59;;;;;;;5.00;3.80;;;;;;;;;;6277547;22;20197;-65
2021/07/21 09:14:26;;;;;;;4.47;3.40;;;;;;;;;;6277588;22;20167;-66
2021/07/21 09:17:25;;;;;;;5.85;3.88;;;;;;;;;;6278030;22;20150;-67
2021/07/21 09:19:51;;;;;;;4.28;3.10;;;;;;;;;;6214209;23;20577;-65
2021/07/21 09:22:17;;;;;;;5.15;3.58;;;;;;;;;;6214124;23;20572;-66
2021/07/21 09:24:44;;;;;;;4.57;3.25;;;;;;;;;;6214133;23;20171;-67
2021/07/21 09:27:10;;;;;;;4.53;3.40;;;;;;;;;;6213995;23;20144;-66
2021/07/21 09:29:36;;;;;;;4.22;3.33;;;;;;;;;;6214206;23;20155;-66
2021/07/21 09:32:03;;;;;;;4.15;2.88;;;;;;;;;;6213984;23;20283;-67
2021/07/21 09:34:29;;;;;;;4.47;3.58;;;;;;;;;;6214109;23;20604;-66
2021/07/21 09:37:02;;;;;;;4.25;3.30;;;;;;;;;;6213957;23;20156;-66
2021/07/21 09:39:35;;;;;;;4.35;3.30;;;;;;;;;;6213989;23;20183;-66
2021/07/21 09:42:01;;;;;;;4.60;3.30;;;;;;;;;;6214123;23;20231;-66
2021/07/21 09:44:40;;;;;;;4.50;3.67;;;;;;;;;;6213933;23;20176;-66
2021/07/21 09:47:10;;;;;;;4.80;3.60;;;;;;;;;;6214086;23;20155;-66
2021/07/21 09:49:36;;;;;;;4.97;3.53;;;;;;;;;;6214035;23;20576;-66
2021/07/21 09:52:15;;;;;;;4.82;3.15;;;;;;;;;;6214176;23;20145;-66
2021/07/21 09:54:41;;;;;;;4.57;3.40;;;;;;;;;;6227489;22;20193;-68
2021/07/21 09:57:13;;;;;;;4.07;3.65;;;;;;;;;;6277854;22;20143;-66
2021/07/21 09:59:40;;;;;;;3.85;3.55;;;;;;;;;;6277804;22;20265;-66
2021/07/21 10:02:16;;;;;;;5.40;3.83;;;;;;;;;;6277514;22;20685;-66
2021/07/21 10:04:45;;;;;;;4.80;3.58;;;;;;;;;;6277939;22;20459;-66
2021/07/21 10:07:47;;;;;;;5.00;3.80;;;;;;;;;;6277910;22;20177;-66
2021/07/21 10:10:15;;;;;;;5.25;3.83;;;;;;;;;;6277822;22;20150;-67
2021/07/21 10:12:41;;;;;;;4.68;3.63;;;;;;;;;;6277908;22;20162;-67
2021/07/21 10:15:07;;;;;;;5.80;4.05;;;;;;;;;;6277963;22;20443;-65
2021/07/21 10:17:33;;;;;;;4.72;3.95;;;;;;;;;;6277700;22;20388;-67
2021/07/21 10:19:59;;;;;;;4.70;4.20;;;;;;;;;;6277752;22;20194;-66
2021/07/21 10:22:25;;;;;;;5.93;4.30;;;;;;;;;;6277623;22;20159;-67
2021/07/21 10:24:51;;;;;;;4.55;3.80;;;;;;;;;;6277294;22;20167;-66
2021/07/21 10:27:18;;;;;;;5.95;4.22;;;;;;;;;;6277284;22;20578;-66
2021/07/21 10:29:44;;;;;;;4.70;4.20;;;;;;;;;;6277723;22;20452;-67
2021/07/21 10:32:11;;;;;;;5.18;3.80;;;;;;;;;;6277323;22;20159;-66
2021/07/21 10:34:37;;;;;;;4.78;3.95;;;;;;;;;;6277218;22;20139;-67
2021/07/21 10:37:03;;;;;;;5.30;3.97;;;;;;;;;;6277591;22;20147;-66
2021/07/21 10:39:33;;;;;;;5.55;3.95;;;;;;;;;;6277216;22;20139;-66
2021/07/21 10:42:04;;;;;;;6.78;4.15;;;;;;;;;;6277179;22;20139;-66
2021/07/21 10:44:30;;;;;;;4.05;3.65;;;;;;;;;;6277302;22;20163;-66
2021/07/21 10:46:56;;;;;;;6.80;4.28;;;;;;;;;;6277091;22;20200;-66
2021/07/21 10:49:24;;;;;;;5.45;4.05;;;;;;;;;;6276895;22;20214;-66
2021/07/21 10:55:14;;;;;;;4.15;3.75;;;;;;;;;;6277005;22;20141;-68
2021/07/21 11:00:33;;;;;;;4.05;3.65;;;;;;;;;;6276892;22;20142;-68
2021/07/21 11:03:17;;;;;;;3.90;3.47;;;;;;;;;;6276639;22;20631;-67
2021/07/21 11:05:44;;;;;;;4.45;4.05;;;;;;;;;;6277277;22;20150;-68
2021/07/21 11:08:16;;;;;;;5.63;4.00;;;;;;;;;;6277478;22;20143;-68
2021/07/21 11:10:43;;;;;;;5.55;4.00;;;;;;;;;;6276751;22;20222;-68
2021/07/21 11:13:10;;;;;;;4.95;4.00;;;;;;;;;;6276298;22;20155;-68
2021/07/21 11:15:37;;;;;;;4.25;3.67;;;;;;;;;;6277075;22;20242;-67
2021/07/21 11:18:22;;;;;;;4.70;3.78;;;;;;;;;;6277033;22;20242;-67
2021/07/21 11:21:01;;;;;;;4.82;4.10;;;;;;;;;;6276967;22;20154;-66
2021/07/21 11:23:45;;;;;;;4.38;3.97;;;;;;;;;;6276349;22;20186;-66
2021/07/21 11:26:46;;;;;;;5.28;4.05;;;;;;;;;;6276815;22;20190;-66
2021/07/21 11:29:24;;;;;;;4.95;4.28;;;;;;;;;;6182952;23;20192;-66
2021/07/21 11:31:50;;;;;;;5.45;4.47;;;;;;;;;;6182910;23;20455;-66
2021/07/21 11:34:17;;;;;;;5.25;4.30;;;;;;;;;;6182683;23;20149;-66
2021/07/21 11:36:49;;;;;;;4.95;4.45;;;;;;;;;;6182611;23;20159;-67
2021/07/21 11:39:34;;;;;;;4.47;4.00;;;;;;;;;;6182787;23;20137;-66
2021/07/21 11:42:00;;;;;;;5.53;4.18;;;;;;;;;;6182855;23;20579;-66
2021/07/21 11:44:28;;;;;;;7.15;4.15;;;;;;;;;;6182492;23;20529;-67
2021/07/21 11:46:55;;;;;;;5.60;4.57;;;;;;;;;;6182848;23;20170;-66
2021/07/21 11:49:22;;;;;;;4.78;4.28;;;;;;;;;;6182638;23;20577;-66
2021/07/21 11:51:48;;;;;;;4.43;3.97;;;;;;;;;;6182784;23;20383;-66
2021/07/21 11:54:19;;;;;;;4.82;3.92;;;;;;;;;;6182600;23;20535;-66
2021/07/21 11:56:46;;;;;;;5.30;4.35;;;;;;;;;;6182728;23;20156;-66
2021/07/21 11:59:12;;;;;;;4.80;4.30;;;;;;;;;;6182592;23;20149;-67
2021/07/21 12:01:38;;;;;;;4.78;4.20;;;;;;;;;;6182698;23;20160;-67
2021/07/21 12:04:04;;;;;;;5.22;4.40;;;;;;;;;;6264360;22;20175;-67
2021/07/21 12:06:30;;;;;;;5.13;4.35;;;;;;;;;;6276232;22;20146;-68
2021/07/21 12:08:57;;;;;;;5.95;4.15;;;;;;;;;;6276493;22;20154;-66
2021/07/21 12:11:24;;;;;;;6.63;4.43;;;;;;;;;;6275054;22;20222;-66
2021/07/21 12:14:03;;;;;;;5.13;4.00;;;;;;;;;;6276176;22;20303;-66
2021/07/21 12:28:33;;;;;;;4.90;4.38;;;;;;;;;;6258705;22;20563;31
2021/07/21 12:30:59;;;;;;;4.72;4.22;;;;;;;;;;6255611;22;20209;31
2021/07/21 12:35:30;;;;;;;4.50;4.10;;;;;;;;;;6290582;22;24293;-66
2021/07/21 12:58:31;;;;;;;4.50;4.00;;;;;;;;;;6135048;23;20602;-66
2021/07/21 13:03:17;;;;;;;5.05;4.55;;;;;;;;;;5809325;22;20529;-65
2021/07/21 13:10:00;;;;;;;5.80;4.20;;;;;;;;;;6321567;22;20508;31
2021/07/21 13:19:42;;;;;;;4.18;3.78;;;;;;;;;;6171046;22;20207;31
2021/07/21 13:24:32;;;;;;;5.55;4.63;;;;;;;;;;6235201;22;20525;31
2021/07/21 13:33:47;;;;;;;5.68;4.47;;;;;;;;;;6137298;23;20728;-67
2021/07/21 13:47:01;;;;;;;5.05;3.50;;;;;;;;;;6135334;23;20202;31
2021/07/21 13:51:40;;;;;;;5.13;4.38;;;;;;;;;;6348199;22;22538;31
2021/07/21 13:56:35;;;;;;;5.80;3.90;;;;;;;;;;6348288;22;20173;-65
2021/07/21 13:59:01;;;;;;;7.25;4.97;;;;;;;;;;6349667;22;20184;-66
2021/07/21 14:03:18;;;;;;;4.85;4.35;;;;;;;;;;5461737;22;20625;-66
2021/07/21 14:05:44;;;;;;;11.48;4.47;;;;;;;;;;5886493;22;20647;31
2021/07/21 14:08:09;;;;;;;5.28;4.47;;;;;;;;;;5884175;22;20278;31
2021/07/21 14:13:41;;;;;;;4.50;4.10;;;;;;;;;;6133766;23;21244;-64
2021/07/21 14:27:00;;;;;;;5.50;4.63;;;;;;;;;;6195007;22;20201;31
2021/07/21 14:38:44;;;;;;;6.45;5.50;;;;;;;;;;6290588;22;20515;31
2021/07/21 14:45:27;;;;;;;5.50;4.63;;;;;;;;;;6175798;22;20538;-63
2021/07/21 14:59:44;;;;;;;6.20;4.72;;;;;;;;;;6174743;22;20538;-64
2021/07/21 15:13:07;;;;;;;5.80;4.47;;;;;;;;;;6167442;22;20525;31
2021/07/21 15:15:33;;;;;;;5.93;5.00;;;;;;;;;;6135290;23;20240;31
2021/07/21 15:22:22;;;;;;;5.20;4.53;;;;;;;;;;6343483;22;20207;31
2021/07/21 15:35:43;;;;;;;5.57;4.50;;;;;;;;;;6263409;22;20462;-64
2021/07/21 15:42:23;;;;;;;5.70;4.20;;;;;;;;;;6318022;22;20211;31
2021/07/21 15:46:47;;;;;;;5.05;4.05;;;;;;;;;;6204183;22;20516;-64
2021/07/21 15:53:40;;;;;;;4.72;4.20;;;;;;;;;;6258237;22;20550;31
2021/07/21 16:08:17;;;;;;;5.85;4.57;;;;;;;;;;6167502;22;20569;-63
2021/07/21 16:15:03;;;;;;;5.22;4.72;;;;;;;;;;6322329;22;20508;31
2021/07/21 16:35:13;;;;;;;5.10;4.30;;;;;;;;;;6320340;22;20505;-64
2021/07/21 16:40:06;;;;;;;4.32;3.92;;;;;;;;;;6315081;22;20408;31
2021/07/21 16:42:32;;;;;;;6.10;4.75;;;;;;;;;;6257630;22;1157599;-64
2021/07/21 16:44:58;;;;;;;7.47;4.70;;;;;;;;;;6257400;22;20177;31
2021/07/21 16:47:24;;;;;;;5.90;4.50;;;;;;;;;;6289682;22;20511;-64
2021/07/21 16:52:15;;;;;;;5.57;4.33;;;;;;;;;;6242314;22;997314;31
2021/07/21 16:59:36;;;;;;;5.20;4.00;;;;;;;;;;6288562;22;20170;-63
2021/07/21 17:05:10;;;;;;;4.65;4.15;;;;;;;;;;5328765;22;20656;-65
2021/07/21 17:07:36;;;;;;;4.72;4.20;;;;;;;;;;5049696;28;20260;-65
2021/07/21 17:10:02;;;;;;;7.47;4.10;;;;;;;;;;5050705;28;20680;-65
2021/07/21 17:12:28;;;;;;;5.32;4.18;;;;;;;;;;5056339;23;20226;-64
2021/07/21 17:14:54;;;;;;;4.15;3.75;;;;;;;;;;5050397;28;20247;-65
2021/07/21 17:17:20;;;;;;;5.50;4.15;;;;;;;;;;5050242;28;20497;-65
2021/07/21 17:19:46;;;;;;;3.90;3.58;;;;;;;;;;5050228;28;20164;-65
2021/07/21 17:22:12;;;;;;;4.45;3.88;;;;;;;;;;5050068;28;20172;-65
2021/07/21 17:24:38;;;;;;;4.05;3.35;;;;;;;;;;5050289;28;20216;-65
2021/07/21 17:27:04;;;;;;;3.80;3.50;;;;;;;;;;5050349;28;20160;-65
2021/07/21 17:29:30;;;;;;;4.72;3.67;;;;;;;;;;5049988;28;20505;-65
2021/07/21 17:31:56;;;;;;;4.15;3.75;;;;;;;;;;5050216;28;20160;-65
2021/07/21 17:34:22;;;;;;;4.72;3.30;;;;;;;;;;5049833;28;20476;-65
2021/07/21 17:36:49;;;;;;;4.13;3.72;;;;;;;;;;5050107;28;20172;-65
2021/07/21 17:39:15;;;;;;;6.25;3.40;;;;;;;;;;5049625;28;20247;-65
2021/07/21 17:41:41;;;;;;;4.47;3.55;;;;;;;;;;5049659;28;20168;-65
2021/07/21 17:44:07;;;;;;;3.67;3.25;;;;;;;;;;5049673;28;20188;-64
2021/07/21 17:46:33;;;;;;;4.68;3.50;;;;;;;;;;5049505;28;20428;-65
2021/07/21 17:49:00;;;;;;;4.28;3.45;;;;;;;;;;5049690;28;20160;-65
2021/07/21 17:51:26;;;;;;;4.13;3.30;;;;;;;;;;5049496;28;20161;-65
2021/07/21 17:53:52;;;;;;;6.93;3.60;;;;;;;;;;5049440;28;20169;-65
2021/07/21 17:56:18;;;;;;;4.07;3.25;;;;;;;;;;5049210;28;20183;-65
2021/07/21 17:58:44;;;;;;;3.22;2.92;;;;;;;;;;5049535;28;20223;-65
2021/07/21 18:01:10;;;;;;;4.10;3.25;;;;;;;;;;5049186;28;20168;-65
2021/07/21 18:03:36;;;;;;;5.00;3.17;;;;;;;;;;5049277;28;20195;-65
2021/07/21 18:06:02;;;;;;;4.43;3.17;;;;;;;;;;5049115;28;20169;-65
2021/07/21 18:08:27;;;;;;;3.47;3.17;;;;;;;;;;5049251;28;20163;-65
2021/07/21 18:10:53;;;;;;;3.80;3.40;;;;;;;;;;5048881;28;20173;-65
2021/07/21 18:13:19;;;;;;;3.92;3.25;;;;;;;;;;5048877;28;20160;-64
2021/07/21 18:15:45;;;;;;;3.58;3.10;;;;;;;;;;5039969;28;20169;-64
2021/07/21 18:18:11;;;;;;;4.95;3.40;;;;;;;;;;5035602;28;20496;-65
2021/07/21 18:20:37;;;;;;;3.92;3.10;;;;;;;;;;5035688;28;20169;-65
2021/07/21 18:23:03;;;;;;;3.97;3.30;;;;;;;;;;5035442;28;20570;-64
2021/07/21 18:25:29;;;;;;;3.60;3.03;;;;;;;;;;5035739;28;20167;-64
2021/07/21 18:27:56;;;;;;;3.88;3.33;;;;;;;;;;5035418;28;20497;-64
2021/07/21 18:30:22;;;;;;;4.47;3.10;;;;;;;;;;5035440;28;20593;-64
2021/07/21 18:32:49;;;;;;;3.47;3.15;;;;;;;;;;5035302;28;20252;-65
2021/07/21 18:35:16;;;;;;;4.85;3.00;;;;;;;;;;5035216;28;20165;-64
2021/07/21 18:37:42;;;;;;;4.75;3.38;;;;;;;;;;5035174;28;20183;-65
2021/07/21 18:40:08;;;;;;;4.90;3.20;;;;;;;;;;5035043;28;20165;-65
2021/07/21 18:42:34;;;;;;;3.50;3.15;;;;;;;;;;5035067;28;20161;-65
2021/07/21 18:45:00;;;;;;;5.20;3.78;;;;;;;;;;5035101;28;20199;-65
2021/07/21 18:47:26;;;;;;;4.88;3.50;;;;;;;;;;5035156;28;20248;-64
2021/07/21 18:49:52;;;;;;;3.55;3.00;;;;;;;;;;5034746;28;20244;-65
2021/07/21 18:52:18;;;;;;;6.28;3.83;;;;;;;;;;5035120;28;20161;-65
2021/07/21 18:54:44;;;;;;;3.83;3.25;;;;;;;;;;5034782;28;20681;-64
2021/07/21 18:57:10;;;;;;;4.40;3.65;;;;;;;;;;5035051;28;20252;-65
2021/07/21 18:59:37;;;;;;;3.60;3.13;;;;;;;;;;5034702;28;20179;-65
2021/07/21 19:02:03;;;;;;;3.90;3.40;;;;;;;;;;5034671;28;20612;-64
2021/07/21 19:04:29;;;;;;;6.65;3.40;;;;;;;;;;5034510;28;20276;-66
2021/07/21 19:06:55;;;;;;;6.82;3.40;;;;;;;;;;5034644;28;20548;-66
2021/07/21 19:09:21;;;;;;;4.38;3.67;;;;;;;;;;5034447;28;20476;-65
2021/07/21 19:11:47;;;;;;;4.38;3.53;;;;;;;;;;5034555;28;20238;-65
2021/07/21 19:14:13;;;;;;;3.70;3.28;;;;;;;;;;5034388;28;20513;-65
2021/07/21 19:16:39;;;;;;;5.75;4.18;;;;;;;;;;5034404;28;20503;-65
2021/07/21 19:19:05;;;;;;;6.07;3.78;;;;;;;;;;5034304;28;20165;-65
2021/07/21 19:21:31;;;;;;;8.68;4.50;;;;;;;;;;5034646;28;20208;-65
2021/07/21 19:23:57;;;;;;;5.45;4.30;;;;;;;;;;5034152;28;20185;-66
2021/07/21 19:26:23;;;;;;;5.68;3.90;;;;;;;;;;5033663;28;20605;-64
2021/07/21 19:28:49;;;;;;;5.20;4.15;;;;;;;;;;5033798;28;20165;-66
2021/07/21 19:31:15;;;;;;;5.03;4.05;;;;;;;;;;5034159;28;20238;-65
2021/07/21 19:33:43;;;;;;;5.40;4.40;;;;;;;;;;5033999;28;20204;-65
2021/07/21 19:36:09;;;;;;;5.65;4.57;;;;;;;;;;5034234;28;20550;-64
2021/07/21 19:38:37;;;;;;;8.30;4.78;;;;;;;;;;5034279;28;20174;-65
2021/07/21 19:41:03;;;;;;;6.13;4.55;;;;;;;;;;5033908;28;20617;-65
2021/07/21 19:43:29;;;;;;;5.20;4.63;;;;;;;;;;5033928;28;20276;-65
2021/07/21 19:45:55;;;;;;;6.20;4.55;;;;;;;;;;5033901;28;20224;-65
2021/07/21 19:48:21;;;;;;;7.45;4.90;;;;;;;;;;5034197;28;20193;-64
2021/07/21 19:50:47;;;;;;;6.40;4.47;;;;;;;;;;5033724;28;20179;-65
2021/07/21 19:53:13;;;;;;;5.70;4.20;;;;;;;;;;5033743;28;20169;-65
2021/07/21 19:55:39;;;;;;;5.03;4.35;;;;;;;;;;5033959;28;20547;-65
2021/07/21 19:58:05;;;;;;;5.35;4.55;;;;;;;;;;5033962;28;20173;-65
2021/07/21 20:00:31;;;;;;;8.45;4.38;;;;;;;;;;5033787;28;20268;-65
2021/07/21 20:02:57;;;;;;;5.25;4.22;;;;;;;;;;5033832;28;20211;-65
2021/07/21 20:05:23;;;;;;;5.22;4.18;;;;;;;;;;5033439;28;20212;-65
2021/07/21 20:07:49;;;;;;;6.72;3.97;;;;;;;;;;5033591;28;20165;-65
2021/07/21 20:10:15;;;;;;;6.13;4.68;;;;;;;;;;5033555;28;20616;-66
2021/07/21 20:12:42;;;;;;;5.03;4.28;;;;;;;;;;5033505;28;20181;-65
2021/07/21 20:15:08;;;;;;;6.50;4.63;;;;;;;;;;5033607;28;20303;-65
2021/07/21 20:17:34;;;;;;;6.28;4.57;;;;;;;;;;5033608;28;20165;-65
2021/07/21 20:20:00;;;;;;;5.57;4.50;;;;;;;;;;5033853;28;20169;-65
2021/07/21 20:22:27;;;;;;;5.65;4.15;;;;;;;;;;5033912;28;20252;-65
2021/07/21 20:24:53;;;;;;;6.38;4.45;;;;;;;;;;5033620;28;20173;-65
2021/07/21 20:27:19;;;;;;;6.13;4.38;;;;;;;;;;5033605;28;20235;-65
2021/07/21 20:29:45;;;;;;;5.75;4.20;;;;;;;;;;5033371;28;20228;-64
2021/07/21 20:32:11;;;;;;;6.60;4.50;;;;;;;;;;5033417;28;20511;-64
2021/07/21 20:34:37;;;;;;;6.43;4.57;;;;;;;;;;5033310;28;20179;-64
2021/07/21 20:37:03;;;;;;;6.10;4.30;;;;;;;;;;5033543;28;20180;-63
2021/07/21 20:39:29;;;;;;;6.57;4.53;;;;;;;;;;5033080;28;20625;-64
2021/07/21 20:41:55;;;;;;;6.85;4.95;;;;;;;;;;5032687;28;20175;-64
2021/07/21 20:44:21;;;;;;;6.28;4.88;;;;;;;;;;5032090;28;20189;-64
2021/07/21 20:46:46;;;;;;;7.63;5.03;;;;;;;;;;5032172;28;20176;-64
2021/07/21 20:49:12;;;;;;;8.30;5.38;;;;;;;;;;5032224;28;20211;-63
2021/07/21 20:51:39;;;;;;;7.15;4.95;;;;;;;;;;5031999;28;20172;-65
2021/07/21 20:54:07;;;;;;;7.05;5.30;;;;;;;;;;5032317;28;20503;-65
2021/07/21 20:56:33;;;;;;;8.20;6.00;;;;;;;;;;5032725;28;20180;-65
2021/07/21 20:58:59;;;;;;;7.15;6.13;;;;;;;;;;5032541;28;20181;-65
2021/07/21 21:01:25;;;;;;;7.93;6.55;;;;;;;;;;5032256;28;20215;-65
2021/07/21 21:03:51;;;;;;;9.13;6.40;;;;;;;;;;5032037;28;20185;-64
2021/07/21 21:06:17;;;;;;;7.97;5.93;;;;;;;;;;5032121;28;20169;-65
2021/07/21 21:08:43;;;;;;;6.85;5.50;;;;;;;;;;5032017;28;20192;-64
2021/07/21 21:11:09;;;;;;;8.07;6.28;;;;;;;;;;5032108;28;20259;-64
2021/07/21 21:13:35;;;;;;;9.20;5.60;;;;;;;;;;5032430;28;20211;-64
2021/07/21 21:16:01;;;;;;;8.60;5.68;;;;;;;;;;5032188;28;20165;-64
2021/07/21 21:18:27;;;;;;;6.38;5.38;;;;;;;;;;5033021;28;20179;-65